Airfield :
LOGIN :

Register | Disclaimer

   EN    FR    IT 

 










Legend :    VFR   Marginal VFR   IFR   Intensive IFR   Very Intensive IFR
Visi :
Ceiling :
>= 8 km
>= 3000ft
5 to 8 km
1000 to 3000 ft
1500m to 5 km
500 to 1000 ft
800 to 1500m
200 to 500 ft
< 800m
< 200 ft
Symbols :   Thunderstorms  Fog  Heavy snow  Heavy precipitations  Wind > 20 kt
SIGMETs :     Misc.  Thunderstorms  Icing  Turbulence  Mountain Waves  Volcanic Ashes






- Airport Elevation : 90 ft
- IATA code : NTE


LFRS - Nantes

CURRENT METAR :
  • 301400Z AUTO 06008KT 030V090 9999 FEW017 08/05 Q1021 BECMG BKN014

EXPIRED METARs :
  • 301330Z AUTO 07010KT 040V100 9999 SCT017/// 08/04 Q1021 BECMG BKN014
  • 301300Z AUTO 08011KT 040V110 9999 BKN020 BKN025 08/05 Q1021 BECMG BKN014
  • 301230Z AUTO 07008KT 9999 OVC020 08/05 Q1021 BECMG BKN014
  • 301200Z AUTO 10008KT 9999 OVC021 08/05 Q1021 BECMG BKN014
  • 301130Z AUTO 10007KT 070V140 9999 OVC018 08/05 Q1021 BECMG BKN014

TAF TAF LFRS
Valid from the 30 at 12:00 until the 01 at 18:00 UTC


301100Z 3012/0118 09009KT 9999 BKN014
TEMPO 3012/3017 SCT014 BKN025
TEMPO 3017/0103 BKN009
BECMG 0105/0107 BKN004
BECMG 0109/0111 BKN010
TEMPO 0111/0118 SCT013 BKN020
ATIS : +33 2 40 05 12 74



MET'MAP, your aeronautical weather chart ! - Copyright ORBIFLY December 2007 - Disclaimer

ORBIFLY MET'MAP TEAM :

Programming & Development : Alexandra Zaïnal
Original concept : Baudouin d'Aumeries
Technical & hardware support : Manuel Goepfert
Assistance : Marc-Olivier Méhu




SOURCES & CREDITS :

   NOAA